Time;durP1;ratioP1;P1;durP2;ratioP2;P2;SDS_P1;SDS_P2;PMS_P1;PMS_P2;Temp;Humidity;BMP_temperature;BMP_pressure;BME280_temperature;BME280_humidity;BME280_pressure;Samples;Min_cycle;Max_cycle;Signal;HPM_P1;HPM_P2
2023/07/04 00:01:23;;;;;;;3.47;1.35;;;15.70;99.90;;;;;;4982151;28;20375;-81
2023/07/04 00:03:58;;;;;;;7.88;1.60;;;15.70;99.90;;;;;;4969705;28;20249;-80
2023/07/04 00:06:29;;;;;;;6.63;1.30;;;15.70;99.90;;;;;;4972569;28;20390;-80
2023/07/04 00:08:55;;;;;;;2.97;1.45;;;15.70;99.90;;;;;;4972767;28;20029;-81
2023/07/04 00:11:21;;;;;;;4.80;1.40;;;15.70;99.90;;;;;;4966740;28;20540;-81
2023/07/04 00:13:49;;;;;;;6.70;1.35;;;15.70;99.90;;;;;;4968645;28;20034;-80
2023/07/04 00:16:15;;;;;;;2.90;1.55;;;15.70;99.90;;;;;;4967063;28;20018;-80
2023/07/04 00:18:42;;;;;;;5.10;1.38;;;15.70;99.90;;;;;;4972988;28;20038;-80
2023/07/04 00:21:14;;;;;;;2.45;1.45;;;15.70;99.90;;;;;;4981890;28;20038;-80
2023/07/04 00:23:46;;;;;;;4.70;1.50;;;15.70;99.90;;;;;;4966068;28;20027;-80
2023/07/04 00:26:16;;;;;;;5.22;1.50;;;15.70;99.90;;;;;;4988222;28;20387;-81
2023/07/04 00:28:42;;;;;;;6.03;1.42;;;15.70;99.90;;;;;;4968880;28;20047;-81
2023/07/04 00:31:10;;;;;;;3.70;1.42;;;15.70;99.90;;;;;;4965121;28;20498;-79
2023/07/04 00:33:36;;;;;;;3.42;1.40;;;15.70;99.90;;;;;;4965832;28;20573;-81
2023/07/04 00:36:09;;;;;;;5.30;1.63;;;15.80;99.90;;;;;;4969424;28;20030;-79
2023/07/04 00:38:38;;;;;;;7.38;1.50;;;15.70;99.90;;;;;;4984680;28;20058;-79
2023/07/04 00:41:09;;;;;;;2.83;1.40;;;15.60;99.90;;;;;;4967064;28;20034;-79
2023/07/04 00:44:09;;;;;;;3.30;1.50;;;15.60;99.90;;;;;;4972284;28;20331;-79
2023/07/04 00:46:38;;;;;;;3.67;1.50;;;15.40;99.90;;;;;;4967644;28;20054;-79
2023/07/04 00:49:14;;;;;;;6.15;1.20;;;15.40;99.90;;;;;;4968559;28;20037;-79
2023/07/04 00:51:42;;;;;;;6.40;1.55;;;15.30;99.90;;;;;;4981454;28;20741;-79
2023/07/04 00:54:08;;;;;;;7.53;1.48;;;15.30;99.90;;;;;;4964393;28;20035;-79
2023/07/04 00:56:34;;;;;;;4.18;1.73;;;15.30;99.90;;;;;;4985351;28;20031;-81
2023/07/04 00:59:00;;;;;;;9.35;1.63;;;15.30;99.90;;;;;;4968568;28;20054;-81
2023/07/04 01:01:27;;;;;;;3.35;1.33;;;15.30;99.90;;;;;;4981398;28;20023;-81
2023/07/04 01:03:54;;;;;;;4.90;1.10;;;15.30;99.90;;;;;;4967330;28;20026;-81
2023/07/04 01:06:24;;;;;;;8.23;1.23;;;15.20;99.90;;;;;;4986239;28;20023;-81
2023/07/04 01:08:56;;;;;;;8.00;1.35;;;15.30;99.90;;;;;;4982334;28;20062;-81
2023/07/04 01:11:29;;;;;;;7.75;1.45;;;15.30;99.90;;;;;;4978579;28;20019;-82
2023/07/04 01:13:55;;;;;;;6.15;1.50;;;15.30;99.90;;;;;;4973442;28;20684;-81
2023/07/04 01:16:23;;;;;;;6.25;1.27;;;15.30;99.90;;;;;;4972809;28;20102;-82
2023/07/04 01:18:53;;;;;;;2.50;1.08;;;15.20;99.90;;;;;;4982417;28;20026;-82
2023/07/04 01:21:23;;;;;;;5.13;1.13;;;15.20;99.90;;;;;;4969038;28;20030;-82
2023/07/04 01:23:48;;;;;;;4.03;1.30;;;15.20;99.90;;;;;;4969238;28;20022;-81
2023/07/04 01:26:37;;;;;;;9.50;1.20;;;15.20;99.90;;;;;;4967334;28;20031;-80
2023/07/04 01:29:12;;;;;;;3.30;0.90;;;15.20;99.90;;;;;;4967146;28;20031;-79
2023/07/04 01:31:40;;;;;;;3.53;1.15;;;15.30;99.90;;;;;;4967632;28;20054;-79
2023/07/04 01:34:08;;;;;;;3.30;0.98;;;15.30;99.90;;;;;;4982244;28;20109;-80
2023/07/04 01:36:35;;;;;;;7.40;1.50;;;15.30;99.90;;;;;;4968386;28;20406;-82
2023/07/04 01:39:01;;;;;;;2.80;1.20;;;15.30;99.90;;;;;;4975813;28;20062;-82
2023/07/04 01:41:28;;;;;;;8.73;1.60;;;15.30;99.90;;;;;;4970155;28;20118;-81
2023/07/04 01:44:04;;;;;;;5.47;1.20;;;15.30;99.90;;;;;;4969821;28;20034;-81
2023/07/04 01:46:31;;;;;;;5.75;1.67;;;15.30;99.90;;;;;;4967128;28;20033;-81
2023/07/04 01:48:57;;;;;;;1.85;1.00;;;15.30;99.90;;;;;;4969452;28;20026;-80
2023/07/04 01:51:27;;;;;;;8.90;1.90;;;15.30;99.90;;;;;;4969307;28;20423;-80
2023/07/04 01:53:55;;;;;;;7.30;1.88;;;15.20;99.90;;;;;;4968622;28;20527;-79
2023/07/04 01:56:20;;;;;;;7.15;1.73;;;15.20;99.90;;;;;;4975870;28;20034;-81
2023/07/04 01:58:46;;;;;;;4.63;1.38;;;15.20;99.90;;;;;;4970374;28;20019;-81
2023/07/04 02:01:12;;;;;;;5.88;1.60;;;15.20;99.90;;;;;;4972391;28;20236;-79
2023/07/04 02:03:38;;;;;;;4.35;1.65;;;15.10;99.90;;;;;;4979020;28;20020;-80
2023/07/04 02:06:04;;;;;;;4.88;1.85;;;15.20;99.90;;;;;;4963597;28;20098;-82
2023/07/04 02:08:29;;;;;;;8.10;1.70;;;15.20;99.90;;;;;;4958236;28;20114;-82
2023/07/04 02:10:55;;;;;;;9.73;1.65;;;15.10;99.90;;;;;;4962977;28;20237;-79
2023/07/04 02:13:21;;;;;;;7.45;1.48;;;15.10;99.90;;;;;;4970045;28;20022;-79
2023/07/04 02:15:47;;;;;;;6.63;1.45;;;15.10;99.90;;;;;;4966200;28;20057;-79
2023/07/04 02:18:12;;;;;;;6.68;1.60;;;15.20;99.90;;;;;;4989112;28;20030;-80
2023/07/04 02:20:38;;;;;;;4.22;1.42;;;15.20;99.90;;;;;;4972329;28;20088;-82
2023/07/04 02:23:03;;;;;;;5.40;1.75;;;15.20;99.90;;;;;;4964617;28;20031;-79
2023/07/04 02:25:29;;;;;;;5.00;1.65;;;15.30;99.90;;;;;;4973146;28;20031;-83
2023/07/04 02:27:55;;;;;;;6.82;1.60;;;15.20;99.90;;;;;;4967575;28;21142;-79
2023/07/04 02:30:20;;;;;;;6.85;2.10;;;15.30;99.90;;;;;;4969666;28;20077;-79
2023/07/04 02:32:46;;;;;;;8.27;1.70;;;15.30;99.90;;;;;;4970788;28;20019;-82
2023/07/04 02:35:14;;;;;;;4.65;1.80;;;15.20;99.90;;;;;;4964151;28;20035;-82
2023/07/04 02:37:40;;;;;;;9.90;2.15;;;15.20;99.90;;;;;;4969791;28;20023;-82
2023/07/04 02:40:06;;;;;;;6.50;1.98;;;15.10;99.90;;;;;;4965669;28;20037;-81
2023/07/04 02:42:34;;;;;;;5.07;1.70;;;15.00;99.90;;;;;;4964940;28;20023;-81
2023/07/04 02:44:59;;;;;;;10.02;1.98;;;14.90;99.90;;;;;;4968954;28;20031;-81
2023/07/04 02:47:26;;;;;;;5.10;1.80;;;14.90;99.90;;;;;;4969207;28;20025;-82
2023/07/04 02:49:55;;;;;;;4.53;1.88;;;15.00;99.90;;;;;;4966357;28;20023;-82
2023/07/04 02:52:21;;;;;;;8.13;1.73;;;15.00;99.90;;;;;;4978701;28;20045;-81
2023/07/04 02:54:47;;;;;;;6.10;2.00;;;15.00;99.90;;;;;;4963451;28;20438;-82
2023/07/04 02:57:16;;;;;;;9.52;2.05;;;15.00;99.90;;;;;;4967420;28;20038;-80
2023/07/04 02:59:42;;;;;;;14.57;2.35;;;15.10;99.90;;;;;;4977772;28;20034;-80
2023/07/04 03:02:07;;;;;;;3.53;2.30;;;15.20;99.90;;;;;;4969662;28;20534;-80
2023/07/04 03:04:33;;;;;;;9.95;2.50;;;15.30;99.90;;;;;;4970861;28;20022;-80
2023/07/04 03:06:59;;;;;;;15.73;3.08;;;15.40;99.90;;;;;;4973150;28;20113;-80
2023/07/04 03:09:24;;;;;;;6.97;2.67;;;15.40;99.90;;;;;;4971236;28;20019;-82
2023/07/04 03:11:50;;;;;;;15.25;2.97;;;15.40;99.90;;;;;;4967935;28;20027;-80
2023/07/04 03:14:16;;;;;;;8.93;2.67;;;15.40;99.90;;;;;;4969406;28;20543;-80
2023/07/04 03:16:41;;;;;;;9.52;2.60;;;15.50;99.90;;;;;;4976378;28;20038;-80
2023/07/04 03:19:07;;;;;;;13.48;2.70;;;15.50;99.90;;;;;;4974402;28;20027;-80
2023/07/04 03:21:32;;;;;;;11.85;3.45;;;15.60;99.90;;;;;;4975220;28;20054;-78
2023/07/04 03:23:59;;;;;;;11.30;2.97;;;15.60;99.90;;;;;;4969475;28;20616;-80
2023/07/04 03:26:24;;;;;;;13.00;2.90;;;15.60;99.90;;;;;;4980606;28;20035;-81
2023/07/04 03:28:50;;;;;;;8.85;3.08;;;15.70;99.90;;;;;;4969339;28;20030;-80
2023/07/04 03:31:16;;;;;;;19.92;3.40;;;15.70;99.90;;;;;;4971129;28;20015;-81
2023/07/04 03:33:41;;;;;;;23.10;3.45;;;15.70;99.90;;;;;;4972530;28;20118;-81
2023/07/04 03:36:07;;;;;;;13.00;3.53;;;15.70;99.90;;;;;;4986006;28;20035;-81
2023/07/04 03:38:32;;;;;;;10.98;3.88;;;15.60;99.90;;;;;;4969445;28;20113;-81
2023/07/04 03:40:58;;;;;;;20.95;3.70;;;15.70;99.90;;;;;;4986924;28;20450;-80
2023/07/04 03:43:27;;;;;;;16.23;3.60;;;15.70;99.90;;;;;;4980924;28;20110;-81
2023/07/04 03:45:52;;;;;;;16.15;3.08;;;15.70;99.90;;;;;;4968274;28;20019;-81
2023/07/04 03:48:18;;;;;;;12.80;3.70;;;15.70;99.90;;;;;;4970724;28;20563;-80
2023/07/04 03:50:44;;;;;;;11.20;3.22;;;15.80;99.90;;;;;;4984264;28;20038;-80
2023/07/04 03:53:10;;;;;;;13.35;3.22;;;15.90;99.90;;;;;;4986447;28;20014;-80
2023/07/04 03:55:35;;;;;;;7.30;2.50;;;15.80;99.90;;;;;;4974587;28;20033;-80
2023/07/04 03:58:02;;;;;;;13.10;2.95;;;15.80;99.90;;;;;;4969368;28;20022;-80
2023/07/04 04:00:27;;;;;;;11.57;2.67;;;15.90;99.90;;;;;;4969943;28;20096;-80
2023/07/04 04:02:53;;;;;;;12.77;2.55;;;15.90;99.90;;;;;;4971963;28;20022;-80
2023/07/04 04:05:19;;;;;;;18.23;2.97;;;15.90;99.90;;;;;;4978257;28;20011;-81
2023/07/04 04:07:48;;;;;;;14.32;3.00;;;15.90;99.90;;;;;;4977875;28;20031;-81
2023/07/04 04:10:15;;;;;;;13.38;2.80;;;15.90;99.90;;;;;;4972785;28;20038;-80
2023/07/04 04:12:40;;;;;;;9.35;3.10;;;15.80;99.90;;;;;;4972550;28;20023;-80
2023/07/04 04:15:09;;;;;;;16.33;3.08;;;15.80;99.90;;;;;;4965851;28;20022;-80
2023/07/04 04:17:35;;;;;;;11.25;3.30;;;15.80;99.90;;;;;;4988946;28;20054;-80
2023/07/04 04:20:04;;;;;;;15.27;3.78;;;15.80;99.90;;;;;;4984490;28;20032;-80
2023/07/04 04:22:33;;;;;;;11.07;3.15;;;15.70;99.90;;;;;;4975615;28;20019;-80
2023/07/04 04:24:58;;;;;;;14.98;3.13;;;15.70;99.90;;;;;;4984937;28;20233;-80
2023/07/04 04:27:30;;;;;;;15.05;3.85;;;15.80;99.90;;;;;;4985041;28;20076;-80
2023/07/04 04:29:56;;;;;;;15.57;3.43;;;15.80;99.90;;;;;;4970892;28;20022;-80
2023/07/04 04:32:22;;;;;;;16.85;3.10;;;15.80;99.90;;;;;;4969877;28;20399;-80
2023/07/04 04:34:48;;;;;;;13.07;2.90;;;15.80;99.90;;;;;;4968968;28;20084;-80
2023/07/04 04:37:14;;;;;;;18.88;3.90;;;15.90;99.90;;;;;;4966529;28;20037;-79
2023/07/04 04:39:39;;;;;;;15.57;2.70;;;15.90;99.90;;;;;;4969985;28;20510;-80
2023/07/04 04:42:06;;;;;;;13.18;2.88;;;16.00;99.90;;;;;;4969248;28;20026;-80
2023/07/04 04:44:32;;;;;;;11.00;3.00;;;16.00;99.90;;;;;;4963049;28;20221;-80
2023/07/04 04:46:58;;;;;;;12.25;3.67;;;16.10;99.90;;;;;;4960385;28;20673;-80
2023/07/04 04:49:23;;;;;;;11.20;3.03;;;16.10;99.90;;;;;;4970613;28;20380;-80
2023/07/04 04:51:51;;;;;;;15.60;3.55;;;16.20;99.90;;;;;;4960646;28;20126;-80
2023/07/04 04:54:17;;;;;;;12.50;3.15;;;16.20;99.90;;;;;;4965520;28;20042;-81
2023/07/04 04:56:46;;;;;;;15.30;3.83;;;16.10;99.90;;;;;;4967395;28;20062;-80
2023/07/04 04:59:12;;;;;;;10.98;2.92;;;16.10;99.90;;;;;;4981650;28;20069;-80
2023/07/04 05:01:38;;;;;;;17.02;3.58;;;16.10;99.90;;;;;;4975671;28;20030;-80
2023/07/04 05:04:04;;;;;;;13.68;3.10;;;16.10;99.90;;;;;;4958651;28;20030;-79
2023/07/04 05:06:30;;;;;;;16.38;3.75;;;16.10;99.90;;;;;;4972697;28;20101;-80
2023/07/04 05:08:56;;;;;;;13.85;3.40;;;16.10;99.90;;;;;;4983335;28;20038;-80
2023/07/04 05:11:22;;;;;;;17.20;4.78;;;16.20;99.90;;;;;;4984671;28;20027;-79
2023/07/04 05:13:49;;;;;;;13.00;3.55;;;16.20;99.90;;;;;;4959875;28;20260;-79
2023/07/04 05:16:18;;;;;;;17.83;3.90;;;16.30;99.90;;;;;;4962954;28;20110;-80
2023/07/04 05:18:45;;;;;;;17.15;3.72;;;16.40;99.90;;;;;;4965922;28;20052;-80
2023/07/04 05:21:16;;;;;;;19.80;4.47;;;16.50;99.90;;;;;;4966923;28;20027;-80
2023/07/04 05:23:45;;;;;;;25.85;4.25;;;16.60;99.90;;;;;;4967587;28;20057;-80
2023/07/04 05:26:16;;;;;;;15.15;3.70;;;16.60;99.90;;;;;;4966748;28;20035;-80
2023/07/04 05:28:41;;;;;;;18.45;3.95;;;16.70;99.90;;;;;;4964796;28;20412;-81
2023/07/04 05:31:13;;;;;;;13.27;3.90;;;16.70;99.90;;;;;;4967587;28;20444;-81
2023/07/04 05:33:39;;;;;;;23.00;4.53;;;16.80;99.90;;;;;;4968082;28;20069;-80
2023/07/04 05:36:10;;;;;;;21.95;3.95;;;16.70;99.90;;;;;;4970886;28;20029;-80
2023/07/04 05:38:37;;;;;;;14.73;3.60;;;16.80;99.90;;;;;;4968310;28;20115;-81
2023/07/04 05:41:09;;;;;;;18.95;3.95;;;17.00;99.90;;;;;;4987718;28;20037;-81
2023/07/04 05:43:36;;;;;;;20.98;4.18;;;17.10;99.90;;;;;;4964714;28;20027;-80
2023/07/04 05:46:02;;;;;;;18.38;3.72;;;17.00;99.90;;;;;;4983924;28;20360;-81
2023/07/04 05:48:29;;;;;;;23.48;5.00;;;17.00;99.90;;;;;;4969943;28;20081;-81
2023/07/04 05:50:57;;;;;;;21.23;4.47;;;17.00;99.90;;;;;;4989701;28;20933;-83
2023/07/04 05:53:26;;;;;;;26.15;5.38;;;17.00;99.90;;;;;;4968700;28;20406;-81
2023/07/04 05:55:53;;;;;;;27.73;4.45;;;17.10;99.90;;;;;;4968321;28;20382;-81
2023/07/04 05:58:21;;;;;;;26.27;4.05;;;17.20;99.90;;;;;;4965787;28;20503;-82
2023/07/04 06:00:47;;;;;;;19.15;4.43;;;17.30;99.90;;;;;;4978963;28;20028;-82
2023/07/04 06:03:17;;;;;;;20.85;3.72;;;17.40;99.90;;;;;;4967907;28;20491;-81
2023/07/04 06:05:43;;;;;;;28.77;4.90;;;17.40;99.90;;;;;;4970318;28;20023;-82
2023/07/04 06:08:10;;;;;;;14.02;4.43;;;17.50;99.90;;;;;;4972795;28;20041;-82
2023/07/04 06:10:36;;;;;;;23.23;4.65;;;17.60;99.90;;;;;;4976982;28;20167;-83
2023/07/04 06:13:02;;;;;;;19.48;4.25;;;17.80;99.90;;;;;;4975414;28;20015;-82
2023/07/04 06:15:30;;;;;;;25.73;4.78;;;17.80;99.90;;;;;;4970285;28;20081;-82
2023/07/04 06:17:55;;;;;;;32.65;4.47;;;17.80;99.90;;;;;;4970561;28;20031;-81
2023/07/04 06:20:22;;;;;;;32.45;5.25;;;17.70;99.90;;;;;;4967621;28;20026;-81
2023/07/04 06:22:48;;;;;;;24.70;4.88;;;17.60;99.90;;;;;;4961776;28;20054;-81
2023/07/04 06:25:14;;;;;;;24.63;4.68;;;17.50;99.90;;;;;;4970842;28;20061;-83
2023/07/04 06:27:41;;;;;;;31.23;5.93;;;17.60;99.90;;;;;;4985172;28;20050;-83
2023/07/04 06:30:11;;;;;;;17.80;4.40;;;17.70;99.90;;;;;;4964775;28;20053;-82
2023/07/04 06:32:36;;;;;;;20.10;5.07;;;17.80;99.90;;;;;;4968002;28;20523;-84
2023/07/04 06:35:02;;;;;;;20.38;4.60;;;18.00;99.90;;;;;;4982947;28;20068;-82
2023/07/04 06:37:28;;;;;;;21.23;4.90;;;17.90;99.90;;;;;;4972504;28;20467;-83
2023/07/04 06:39:54;;;;;;;16.85;3.90;;;17.90;99.90;;;;;;4968565;28;20308;-83
2023/07/04 06:42:19;;;;;;;25.02;5.07;;;17.90;99.90;;;;;;4971635;28;20054;-82
2023/07/04 06:44:45;;;;;;;16.95;4.57;;;17.80;99.90;;;;;;4988722;28;20030;-83
2023/07/04 06:47:11;;;;;;;23.65;4.55;;;17.90;99.90;;;;;;4974425;28;20683;-83
2023/07/04 06:49:36;;;;;;;21.08;5.20;;;18.00;99.90;;;;;;4968956;28;20339;-82
2023/07/04 06:52:02;;;;;;;21.50;4.85;;;17.90;99.90;;;;;;4969121;28;20025;-83
2023/07/04 06:54:28;;;;;;;21.52;4.50;;;17.90;99.90;;;;;;4985541;28;20025;-83
2023/07/04 06:56:53;;;;;;;25.63;4.28;;;18.10;99.90;;;;;;4972278;28;20053;-83
2023/07/04 06:59:19;;;;;;;16.75;3.95;;;18.10;99.90;;;;;;4970447;28;20027;-83
2023/07/04 07:01:44;;;;;;;16.40;3.88;;;18.20;99.90;;;;;;4965794;28;20617;-83
2023/07/04 07:04:12;;;;;;;24.67;4.00;;;18.40;99.90;;;;;;4985856;28;20109;-83
2023/07/04 07:06:39;;;;;;;22.15;4.18;;;18.50;99.90;;;;;;4988679;28;20030;-83
2023/07/04 07:09:08;;;;;;;21.17;4.00;;;18.60;99.90;;;;;;4962673;28;20114;-83
2023/07/04 07:11:34;;;;;;;22.42;4.30;;;18.60;99.90;;;;;;4970326;28;20049;-83
2023/07/04 07:14:00;;;;;;;17.75;3.92;;;18.80;99.90;;;;;;4971012;28;21426;-83
2023/07/04 07:16:26;;;;;;;18.75;3.78;;;19.00;99.90;;;;;;4973267;28;20118;-82
2023/07/04 07:18:53;;;;;;;17.25;4.25;;;19.10;99.90;;;;;;4971116;28;20109;-84
2023/07/04 07:21:21;;;;;;;24.20;4.45;;;18.90;99.90;;;;;;4972734;28;20294;-85
2023/07/04 07:23:48;;;;;;;20.98;5.10;;;19.00;99.90;;;;;;4971007;28;20041;-84
2023/07/04 07:26:18;;;;;;;19.65;4.07;;;19.00;99.90;;;;;;4968422;28;20040;-82
2023/07/04 07:28:44;;;;;;;23.95;4.93;;;19.00;99.90;;;;;;4973477;28;20110;-83
2023/07/04 07:31:12;;;;;;;17.90;4.40;;;19.10;99.90;;;;;;4966085;28;20019;-82
2023/07/04 07:33:40;;;;;;;17.73;4.20;;;19.20;99.90;;;;;;4971007;28;20023;-83
2023/07/04 07:36:12;;;;;;;23.63;4.10;;;19.20;99.90;;;;;;4987733;28;20026;-83
2023/07/04 07:38:38;;;;;;;20.45;4.38;;;19.20;99.90;;;;;;4969323;28;20045;-85
2023/07/04 07:41:04;;;;;;;17.15;3.63;;;19.30;99.90;;;;;;4984398;28;20114;-83
2023/07/04 07:43:31;;;;;;;16.80;3.75;;;19.30;99.90;;;;;;4974270;28;20101;-84
2023/07/04 07:45:57;;;;;;;25.63;4.65;;;19.40;99.90;;;;;;4977167;28;20027;-80
2023/07/04 07:48:23;;;;;;;13.10;3.35;;;19.60;99.90;;;;;;4970538;28;20081;-83
2023/07/04 07:50:53;;;;;;;12.55;3.25;;;19.60;99.90;;;;;;4973547;28;20022;-83
2023/07/04 07:53:21;;;;;;;14.68;3.35;;;19.60;99.90;;;;;;4974654;28;20080;-82
2023/07/04 07:55:46;;;;;;;16.17;3.90;;;19.70;99.90;;;;;;4973043;28;20046;-82
2023/07/04 07:58:14;;;;;;;14.93;3.15;;;19.80;99.90;;;;;;4971493;28;20066;-82
2023/07/04 08:00:40;;;;;;;19.63;4.07;;;19.70;99.90;;;;;;4973569;28;20028;-82
2023/07/04 08:03:06;;;;;;;17.23;3.40;;;19.60;99.90;;;;;;4971377;28;20022;-82
2023/07/04 08:05:39;;;;;;;15.05;3.20;;;19.60;99.90;;;;;;4975453;28;20105;-84
2023/07/04 08:08:05;;;;;;;20.33;3.65;;;19.40;99.90;;;;;;4990388;28;20026;-83
2023/07/04 08:10:41;;;;;;;21.83;4.20;;;19.90;99.90;;;;;;4967451;28;20033;-84
2023/07/04 08:13:08;;;;;;;16.15;3.25;;;20.10;99.90;;;;;;4974018;28;20084;-83
2023/07/04 08:15:33;;;;;;;11.50;3.63;;;20.00;99.90;;;;;;4973868;28;20023;-84
2023/07/04 08:18:04;;;;;;;17.58;2.78;;;20.20;99.90;;;;;;4974013;28;20038;-83
2023/07/04 08:20:30;;;;;;;14.05;3.17;;;20.10;99.90;;;;;;4978543;28;20037;-82
2023/07/04 08:22:55;;;;;;;14.75;3.00;;;19.80;99.90;;;;;;4972567;28;20023;-81
2023/07/04 08:25:21;;;;;;;10.05;2.97;;;19.80;99.90;;;;;;4987323;28;20021;-83
2023/07/04 08:27:48;;;;;;;16.92;3.00;;;20.10;99.90;;;;;;4972007;28;20051;-84
2023/07/04 08:30:16;;;;;;;13.88;2.83;;;20.50;99.90;;;;;;4972256;28;20034;-83
2023/07/04 08:32:43;;;;;;;11.75;2.85;;;20.80;99.90;;;;;;4988810;28;20053;-84
2023/07/04 08:35:09;;;;;;;10.93;2.83;;;21.10;99.90;;;;;;4971954;28;20117;-84
2023/07/04 08:37:35;;;;;;;9.73;2.80;;;21.10;99.90;;;;;;4975322;28;20109;-84
2023/07/04 08:40:00;;;;;;;15.35;3.10;;;21.20;99.90;;;;;;4971595;28;20038;-83
2023/07/04 08:42:29;;;;;;;10.55;2.60;;;21.50;99.90;;;;;;4981387;28;20019;-81
2023/07/04 08:44:56;;;;;;;15.43;3.33;;;21.60;99.90;;;;;;4964835;28;20022;-80
2023/07/04 08:47:27;;;;;;;15.55;3.10;;;21.40;99.90;;;;;;4964539;28;20043;-81
2023/07/04 08:50:02;;;;;;;15.30;2.88;;;21.20;99.90;;;;;;4968336;28;20031;-81
2023/07/04 08:52:33;;;;;;;14.00;3.10;;;21.20;99.90;;;;;;4985187;28;20117;-81
2023/07/04 08:54:59;;;;;;;12.88;2.80;;;21.60;99.90;;;;;;4968849;28;20039;-81
2023/07/04 08:57:50;;;;;;;11.05;2.88;;;21.70;99.90;;;;;;4988635;28;20037;-81
2023/07/04 09:00:32;;;;;;;11.55;2.75;;;21.60;99.90;;;;;;4983030;28;20030;-82
2023/07/04 09:03:09;;;;;;;13.13;2.97;;;21.90;99.90;;;;;;4972391;28;20483;-80
2023/07/04 09:05:50;;;;;;;10.95;3.08;;;21.80;99.90;;;;;;4969232;28;20117;-82
2023/07/04 09:08:25;;;;;;;12.75;2.50;;;22.00;99.60;;;;;;4969331;28;20431;-85
2023/07/04 09:10:56;;;;;;;18.13;2.85;;;21.80;98.90;;;;;;4981575;28;20121;-84
2023/07/04 09:13:36;;;;;;;12.10;3.08;;;21.90;98.60;;;;;;4973396;28;20073;-82
2023/07/04 09:16:06;;;;;;;10.35;2.97;;;21.90;98.30;;;;;;4970966;28;20114;-83
2023/07/04 09:18:43;;;;;;;10.45;2.67;;;22.00;96.70;;;;;;4977723;28;20174;-81
2023/07/04 09:21:14;;;;;;;6.18;3.08;;;21.80;96.50;;;;;;4962941;28;20026;-82
2023/07/04 09:23:41;;;;;;;10.77;2.58;;;22.10;97.10;;;;;;4977195;28;20027;-83
2023/07/04 09:26:10;;;;;;;10.95;2.67;;;22.40;96.00;;;;;;4970497;28;20038;-81
2023/07/04 09:28:39;;;;;;;7.82;2.53;;;22.70;96.00;;;;;;4972405;28;20613;-81
2023/07/04 09:31:08;;;;;;;13.63;2.90;;;23.00;94.10;;;;;;4976700;28;20047;-80
2023/07/04 09:33:35;;;;;;;11.98;2.97;;;22.90;94.30;;;;;;4964581;28;20022;-85
2023/07/04 09:36:02;;;;;;;10.65;2.42;;;22.80;94.00;;;;;;4982366;28;20027;-82
2023/07/04 09:38:58;;;;;;;11.45;2.80;;;22.80;94.60;;;;;;4966542;28;20149;-82
2023/07/04 09:41:32;;;;;;;11.68;3.45;;;23.10;93.50;;;;;;4969718;28;20029;-84
2023/07/04 09:44:17;;;;;;;10.80;2.58;;;23.10;90.70;;;;;;4968473;28;20011;-82
2023/07/04 09:46:48;;;;;;;10.40;2.63;;;23.50;91.70;;;;;;4987083;28;20015;-83
2023/07/04 09:49:26;;;;;;;8.65;2.60;;;23.40;90.50;;;;;;4967305;28;20041;-81
2023/07/04 09:51:58;;;;;;;7.13;2.22;;;23.60;90.90;;;;;;4964521;28;20282;-82
2023/07/04 09:54:24;;;;;;;15.95;3.08;;;23.90;90.90;;;;;;4983181;28;20029;-83
2023/07/04 09:56:50;;;;;;;9.25;2.38;;;23.70;90.40;;;;;;4971319;28;20089;-83
2023/07/04 09:59:24;;;;;;;13.07;2.88;;;23.30;90.30;;;;;;4972828;28;20019;-82
2023/07/04 10:01:52;;;;;;;7.53;2.50;;;23.20;87.30;;;;;;4970067;28;20015;-82
2023/07/04 10:04:32;;;;;;;8.98;2.97;;;23.30;88.60;;;;;;4969582;28;20074;-82
2023/07/04 10:06:59;;;;;;;9.88;2.53;;;23.30;89.40;;;;;;4964142;28;20534;-83
2023/07/04 10:09:29;;;;;;;11.02;2.50;;;23.70;89.50;;;;;;4979268;28;20596;-82
2023/07/04 10:12:14;;;;;;;7.75;2.45;;;23.80;87.80;;;;;;4959637;28;20069;-82
2023/07/04 10:14:46;;;;;;;8.38;2.58;;;23.80;84.60;;;;;;4967933;28;20022;-81
2023/07/04 10:17:30;;;;;;;7.90;2.80;;;23.30;83.30;;;;;;4964753;28;20038;-81
2023/07/04 10:20:00;;;;;;;12.27;2.65;;;23.20;84.50;;;;;;4982783;28;20030;-80
2023/07/04 10:22:34;;;;;;;11.82;2.50;;;23.40;81.60;;;;;;4980038;28;20039;-82
2023/07/04 10:25:00;;;;;;;10.23;2.75;;;23.30;80.90;;;;;;4985793;28;20105;-81
2023/07/04 10:27:37;;;;;;;9.20;2.80;;;23.90;82.80;;;;;;5000820;28;20030;-81
2023/07/04 10:30:11;;;;;;;7.38;2.78;;;23.80;83.20;;;;;;4970702;28;20043;-81
2023/07/04 10:32:43;;;;;;;8.73;2.83;;;24.00;82.10;;;;;;4978359;28;20030;-83
2023/07/04 10:35:14;;;;;;;15.23;3.33;;;24.30;82.20;;;;;;4979602;28;20049;-81
2023/07/04 10:37:43;;;;;;;18.65;3.38;;;24.40;81.30;;;;;;4963340;28;20035;-81
2023/07/04 10:40:14;;;;;;;16.50;3.30;;;24.80;81.20;;;;;;4977686;28;20037;-81
2023/07/04 10:42:46;;;;;;;11.07;2.85;;;25.00;79.80;;;;;;4964445;28;20042;-80
2023/07/04 10:45:15;;;;;;;12.85;3.53;;;24.80;80.10;;;;;;4969230;28;21145;-81
2023/07/04 10:47:42;;;;;;;7.85;2.65;;;24.90;78.20;;;;;;4977953;28;20031;-83
2023/07/04 10:50:13;;;;;;;12.93;2.80;;;24.50;76.60;;;;;;4966622;28;20022;-80
2023/07/04 10:52:45;;;;;;;12.23;2.60;;;24.60;76.70;;;;;;4964927;28;20030;-81
2023/07/04 10:55:25;;;;;;;10.57;2.72;;;25.00;76.10;;;;;;4965878;28;20031;-82
2023/07/04 10:57:59;;;;;;;9.15;2.53;;;25.10;75.00;;;;;;4970936;28;20283;-81
2023/07/04 11:00:33;;;;;;;10.35;2.53;;;25.00;73.20;;;;;;4965015;28;20027;-80
2023/07/04 11:03:09;;;;;;;8.77;3.05;;;25.10;73.90;;;;;;4967139;28;20038;-81
2023/07/04 11:05:53;;;;;;;5.18;2.45;;;25.30;74.30;;;;;;4982381;28;20006;-80
2023/07/04 11:08:22;;;;;;;9.00;2.33;;;26.00;75.50;;;;;;4990924;28;20034;-80
2023/07/04 11:10:58;;;;;;;11.35;2.53;;;26.20;73.10;;;;;;4966528;28;20026;-80
2023/07/04 11:13:25;;;;;;;8.60;2.63;;;26.00;72.20;;;;;;4983876;28;20019;-81
2023/07/04 11:15:56;;;;;;;6.65;2.38;;;25.30;72.60;;;;;;4980558;28;20458;-81
2023/07/04 11:18:26;;;;;;;13.82;2.92;;;25.10;74.70;;;;;;4969474;28;20035;-81
2023/07/04 11:21:08;;;;;;;10.15;2.90;;;25.30;74.40;;;;;;4972875;28;20252;-81
2023/07/04 11:23:45;;;;;;;8.68;2.88;;;25.70;75.30;;;;;;4975122;28;20328;-81
2023/07/04 11:26:11;;;;;;;7.55;2.40;;;25.50;74.00;;;;;;4972061;28;20027;-80
2023/07/04 11:28:41;;;;;;;9.00;2.70;;;25.20;75.40;;;;;;4972973;28;20118;-80
2023/07/04 11:31:21;;;;;;;6.13;2.38;;;24.50;75.30;;;;;;4979988;28;20035;-80
2023/07/04 11:33:52;;;;;;;10.75;3.00;;;24.30;76.90;;;;;;4969932;28;20548;-80
2023/07/04 11:36:36;;;;;;;5.95;3.08;;;24.30;76.80;;;;;;4973055;28;20027;-81
2023/07/04 11:39:33;;;;;;;7.10;2.47;;;24.00;76.20;;;;;;4974823;28;20677;-78
2023/07/04 11:42:19;;;;;;;7.30;2.50;;;24.60;76.80;;;;;;4972233;28;20743;-79
2023/07/04 11:45:07;;;;;;;9.50;3.00;;;24.80;76.60;;;;;;4971986;28;20582;-79
2023/07/04 11:47:40;;;;;;;7.78;2.30;;;24.70;77.90;;;;;;4971803;28;20054;-79
2023/07/04 11:50:33;;;;;;;11.88;2.97;;;24.30;78.50;;;;;;4974874;28;20026;-80
2023/07/04 11:53:01;;;;;;;7.80;2.05;;;23.90;79.20;;;;;;4939587;28;20584;-80
2023/07/04 11:55:33;;;;;;;11.40;2.63;;;23.70;79.00;;;;;;4967746;28;20547;-80
2023/07/04 11:58:06;;;;;;;9.70;2.97;;;23.70;80.40;;;;;;4968753;28;20027;-80
2023/07/04 12:00:35;;;;;;;11.95;2.85;;;24.00;80.60;;;;;;4973389;28;20029;-80
2023/07/04 12:03:21;;;;;;;9.60;2.33;;;24.00;79.80;;;;;;4971472;28;20749;-80
2023/07/04 12:05:53;;;;;;;6.47;2.20;;;24.00;79.10;;;;;;4967317;28;20636;-81
2023/07/04 12:08:26;;;;;;;13.55;3.13;;;23.90;79.80;;;;;;4987791;28;20035;-80
2023/07/04 12:10:56;;;;;;;14.05;2.88;;;24.00;80.30;;;;;;4986631;28;20209;-80
2023/07/04 12:13:23;;;;;;;8.52;2.40;;;24.00;78.10;;;;;;4974082;28;20031;-80
2023/07/04 12:15:49;;;;;;;9.60;2.92;;;23.70;78.80;;;;;;4971878;28;20037;-81
2023/07/04 12:18:23;;;;;;;9.48;3.30;;;23.50;79.20;;;;;;4973899;28;20553;-78
2023/07/04 12:20:53;;;;;;;9.27;2.15;;;23.70;80.50;;;;;;4967691;28;20026;-81
2023/07/04 12:23:18;;;;;;;9.98;2.30;;;23.80;78.30;;;;;;4970852;28;20436;-81
2023/07/04 12:25:50;;;;;;;6.50;2.30;;;23.80;78.30;;;;;;4969384;28;20184;-80
2023/07/04 12:28:18;;;;;;;5.78;2.10;;;23.70;78.10;;;;;;4976930;28;20023;-82
2023/07/04 12:30:59;;;;;;;12.50;2.17;;;23.70;78.40;;;;;;4992568;28;20029;-81
2023/07/04 12:33:34;;;;;;;9.45;2.42;;;23.70;78.90;;;;;;4974577;28;20038;-81
2023/07/04 12:36:06;;;;;;;9.90;2.58;;;23.70;78.80;;;;;;4980356;28;20047;-80
2023/07/04 12:38:33;;;;;;;12.02;2.58;;;24.00;79.20;;;;;;4964890;28;20039;-79
2023/07/04 12:41:00;;;;;;;9.48;2.40;;;23.80;78.40;;;;;;4970020;28;20069;-80
2023/07/04 12:43:30;;;;;;;5.63;2.40;;;23.50;79.70;;;;;;4976477;28;20027;-81
2023/07/04 12:46:19;;;;;;;6.47;2.13;;;23.30;79.90;;;;;;4976955;28;20019;-80
2023/07/04 12:48:45;;;;;;;9.20;2.80;;;23.50;81.00;;;;;;4972381;28;20027;-80
2023/07/04 12:51:15;;;;;;;6.90;2.70;;;23.90;78.60;;;;;;4985321;28;20023;-82